Time;durP1;ratioP1;P1;durP2;ratioP2;P2;SDS_P1;SDS_P2;PMS_P1;PMS_P2;Temp;Humidity;BMP_temperature;BMP_pressure;BME280_temperature;BME280_humidity;BME280_pressure;Samples;Min_cycle;Max_cycle;Signal;HPM_P1;HPM_P2
2021/04/08 00:01:47;;;;;;;16.08;2.88;;;3.80;85.80;;;;;;5037652;28;20037;-75
2021/04/08 00:04:12;;;;;;;11.43;2.55;;;3.80;86.00;;;;;;5054527;28;20029;-75
2021/04/08 00:06:38;;;;;;;13.02;2.42;;;3.90;85.50;;;;;;5072330;28;20493;-75
2021/04/08 00:09:04;;;;;;;12.52;2.03;;;3.90;85.20;;;;;;5074405;28;20029;-75
2021/04/08 00:11:30;;;;;;;11.32;2.10;;;3.90;85.30;;;;;;5074422;28;20029;-75
2021/04/08 00:13:55;;;;;;;12.30;2.28;;;3.80;85.30;;;;;;5074969;28;20039;-75
2021/04/08 00:16:21;;;;;;;12.02;1.77;;;3.80;85.30;;;;;;5076004;28;20039;-76
2021/04/08 00:18:46;;;;;;;13.80;2.22;;;3.90;85.10;;;;;;5076191;28;20029;-75
2021/04/08 00:21:12;;;;;;;13.20;2.35;;;3.80;85.10;;;;;;5074865;28;20427;-77
2021/04/08 00:23:37;;;;;;;8.38;1.77;;;3.80;85.20;;;;;;5076094;28;20032;-77
2021/04/08 00:26:03;;;;;;;9.52;1.80;;;3.90;84.80;;;;;;5075482;28;20056;-77
2021/04/08 00:28:29;;;;;;;10.38;1.88;;;3.90;84.80;;;;;;5075189;28;20032;-77
2021/04/08 00:30:55;;;;;;;9.07;1.80;;;3.90;85.00;;;;;;5086005;28;20472;-77
2021/04/08 00:33:21;;;;;;;10.75;1.98;;;3.90;84.60;;;;;;5082045;28;20086;-77
2021/04/08 00:35:47;;;;;;;8.23;1.60;;;3.80;84.50;;;;;;5076431;28;20480;-77
2021/04/08 00:38:13;;;;;;;9.52;1.60;;;3.80;84.80;;;;;;5076140;28;20078;-77
2021/04/08 00:40:40;;;;;;;8.18;1.42;;;3.70;84.90;;;;;;5076188;28;20504;-78
2021/04/08 00:43:06;;;;;;;10.32;1.55;;;3.80;85.60;;;;;;5075124;28;20025;-77
2021/04/08 00:45:33;;;;;;;6.55;1.20;;;3.80;85.20;;;;;;5074968;28;20035;-77
2021/04/08 00:47:59;;;;;;;8.55;1.70;;;3.80;84.90;;;;;;5054890;28;20024;-77
2021/04/08 00:50:25;;;;;;;7.07;1.73;;;3.80;84.90;;;;;;5056039;28;20482;-78
2021/04/08 00:53:05;;;;;;;5.75;1.25;;;3.80;84.60;;;;;;5054792;28;20397;-77
2021/04/08 00:55:36;;;;;;;;;;;3.80;84.60;;;;;;5056273;28;20055;-77
2021/04/08 00:58:05;;;;;;;6.88;1.48;;;3.70;84.60;;;;;;5066088;28;19915;-77
2021/04/08 01:00:36;;;;;;;9.55;1.27;;;3.70;84.90;;;;;;5057839;28;20032;-77
2021/04/08 01:03:02;;;;;;;9.77;1.60;;;3.60;84.60;;;;;;5074700;28;20024;-77
2021/04/08 01:05:28;;;;;;;8.73;1.40;;;3.70;84.70;;;;;;5075844;28;20036;-77
2021/04/08 01:07:54;;;;;;;15.40;1.75;;;3.70;84.70;;;;;;5075925;28;20082;-77
2021/04/08 01:10:23;;;;;;;8.65;1.52;;;3.60;84.80;;;;;;5074183;28;20423;-77
2021/04/08 01:12:55;;;;;;;11.57;1.90;;;3.60;85.10;;;;;;5075731;28;20343;-77
2021/04/08 01:15:22;;;;;;;6.45;1.25;;;3.60;85.00;;;;;;5075377;28;20455;-77
2021/04/08 01:18:26;;;;;;;7.07;1.25;;;3.60;85.20;;;;;;5075094;28;20086;-77
2021/04/08 01:21:09;;;;;;;6.20;1.17;;;3.60;85.40;;;;;;5073737;28;20155;-77
2021/04/08 01:23:56;;;;;;;6.65;1.33;;;3.60;85.50;;;;;;5075606;28;20104;-77
2021/04/08 01:26:56;;;;;;;6.10;1.30;;;3.70;85.50;;;;;;5074171;28;20017;-77
2021/04/08 01:29:41;;;;;;;3.22;0.95;;;3.80;85.60;;;;;;5075210;28;20021;-77
2021/04/08 01:32:09;;;;;;;5.78;1.20;;;3.80;85.60;;;;;;5075424;28;20020;-77
2021/04/08 01:34:39;;;;;;;8.00;1.20;;;3.80;85.40;;;;;;5074029;28;20124;-77
2021/04/08 01:37:09;;;;;;;8.77;1.52;;;3.80;85.40;;;;;;5075264;28;20035;-77
2021/04/08 01:39:37;;;;;;;8.70;1.48;;;3.70;85.20;;;;;;5075139;28;20025;-77
2021/04/08 01:42:03;;;;;;;11.13;1.58;;;3.70;85.50;;;;;;5075055;28;20020;-77
2021/04/08 01:44:30;;;;;;;7.10;1.38;;;3.60;85.50;;;;;;5073640;28;20020;-77
2021/04/08 01:47:00;;;;;;;12.23;2.13;;;3.60;85.30;;;;;;5073793;28;20028;-77
2021/04/08 01:49:27;;;;;;;4.00;1.10;;;3.60;85.30;;;;;;5075026;28;20066;-77
2021/04/08 01:51:57;;;;;;;7.15;1.30;;;3.60;85.60;;;;;;5074991;28;20542;-77
2021/04/08 01:54:30;;;;;;;;;;;3.60;85.50;;;;;;5075383;28;20040;-77
2021/04/08 01:57:00;;;;;;;4.45;1.10;;;3.60;85.50;;;;;;5073589;28;19916;-77
2021/04/08 01:59:27;;;;;;;8.57;1.40;;;3.50;85.70;;;;;;5074205;28;20135;-74
2021/04/08 02:01:56;;;;;;;6.57;1.80;;;3.60;85.80;;;;;;5074114;28;20043;-74
2021/04/08 02:04:22;;;;;;;;;;;3.60;85.70;;;;;;5072951;28;20025;-75
2021/04/08 02:06:48;;;;;;;6.63;1.70;;;3.60;85.60;;;;;;5074217;28;19911;-74
2021/04/08 02:09:15;;;;;;;6.75;1.48;;;3.60;85.70;;;;;;5073544;28;20041;-74
2021/04/08 02:11:41;;;;;;;7.22;1.80;;;3.70;85.70;;;;;;5074258;28;20032;-75
2021/04/08 02:14:10;;;;;;;5.90;1.48;;;3.70;85.50;;;;;;5074080;28;20029;-74
2021/04/08 02:16:37;;;;;;;5.38;1.52;;;3.70;85.50;;;;;;5073927;28;20037;-75
2021/04/08 02:19:07;;;;;;;7.90;1.88;;;3.80;85.50;;;;;;5072555;28;20043;-75
2021/04/08 02:21:33;;;;;;;9.30;1.45;;;3.80;85.60;;;;;;5073766;28;20029;-74
2021/04/08 02:24:01;;;;;;;10.35;1.92;;;3.80;85.50;;;;;;5073539;28;20028;-74
2021/04/08 02:26:28;;;;;;;8.43;1.70;;;3.90;85.40;;;;;;5072386;28;20469;-75
2021/04/08 02:28:55;;;;;;;6.93;1.80;;;3.90;85.40;;;;;;5072530;28;20039;-75
2021/04/08 02:31:21;;;;;;;7.28;1.70;;;4.00;85.40;;;;;;5072258;28;20127;-74
2021/04/08 02:33:46;;;;;;;5.65;1.52;;;4.00;85.50;;;;;;5073563;28;20435;-74
2021/04/08 02:36:13;;;;;;;7.47;1.60;;;4.00;85.30;;;;;;5073409;28;20098;-75
2021/04/08 02:38:38;;;;;;;9.50;2.10;;;4.00;85.80;;;;;;5056021;28;20034;-75
2021/04/08 02:41:07;;;;;;;8.85;1.70;;;4.00;85.90;;;;;;5072078;28;20032;-74
2021/04/08 02:43:33;;;;;;;5.27;1.50;;;4.00;85.30;;;;;;5073466;28;20055;-75
2021/04/08 02:45:59;;;;;;;7.28;2.03;;;4.00;85.30;;;;;;5072226;28;20033;-74
2021/04/08 02:48:25;;;;;;;11.90;2.35;;;4.00;85.40;;;;;;5073108;28;20538;-74
2021/04/08 02:50:56;;;;;;;7.35;2.03;;;4.00;85.30;;;;;;5072628;28;20059;-75
2021/04/08 02:53:24;;;;;;;12.57;2.38;;;4.10;85.30;;;;;;5071871;28;20120;-75
2021/04/08 02:55:54;;;;;;;8.80;2.28;;;4.10;85.30;;;;;;5079107;28;20074;-74
2021/04/08 02:58:23;;;;;;;8.10;2.30;;;4.10;85.10;;;;;;5075056;28;20052;-74
2021/04/08 03:00:52;;;;;;;8.55;2.10;;;4.00;85.20;;;;;;5092825;28;20400;-74
2021/04/08 03:03:22;;;;;;;7.15;2.05;;;4.00;85.10;;;;;;5093169;28;20020;-74
2021/04/08 03:05:48;;;;;;;8.50;2.15;;;4.10;85.10;;;;;;5093561;28;20127;-75
2021/04/08 03:08:17;;;;;;;8.63;2.00;;;4.10;85.00;;;;;;5093075;28;20060;-74
2021/04/08 03:10:44;;;;;;;11.93;2.28;;;4.10;85.00;;;;;;5093100;28;20074;-74
2021/04/08 03:13:12;;;;;;;9.00;2.17;;;4.10;84.90;;;;;;5057682;28;20044;-74
2021/04/08 03:15:39;;;;;;;10.45;2.45;;;4.10;84.90;;;;;;5092906;28;20055;-74
2021/04/08 03:18:09;;;;;;;9.57;2.63;;;4.10;84.90;;;;;;5057144;28;20400;-75
2021/04/08 03:20:36;;;;;;;6.30;2.08;;;4.10;84.80;;;;;;5092055;28;20019;-75
2021/04/08 03:23:05;;;;;;;8.68;2.50;;;4.10;84.90;;;;;;5078201;28;20072;-74
2021/04/08 03:25:32;;;;;;;9.70;3.22;;;4.10;84.70;;;;;;5093555;28;20020;-75
2021/04/08 03:27:58;;;;;;;11.05;3.08;;;4.10;84.50;;;;;;5092630;28;20028;-75
2021/04/08 03:30:25;;;;;;;14.05;3.03;;;4.10;84.60;;;;;;5074240;28;20032;-75
2021/04/08 03:32:55;;;;;;;9.80;3.30;;;4.10;84.70;;;;;;5074847;28;20032;-74
2021/04/08 03:35:22;;;;;;;11.48;3.28;;;4.00;84.60;;;;;;5092744;28;20032;-74
2021/04/08 03:37:49;;;;;;;8.90;3.75;;;4.00;84.60;;;;;;5074666;28;20070;-74
2021/04/08 03:40:15;;;;;;;12.80;4.03;;;4.10;84.70;;;;;;5092313;28;20479;-74
2021/04/08 03:42:41;;;;;;;9.98;3.75;;;4.10;84.60;;;;;;5094638;28;20051;-74
2021/04/08 03:45:09;;;;;;;12.23;4.00;;;4.10;84.50;;;;;;5084142;28;20036;-74
2021/04/08 03:47:40;;;;;;;9.98;3.65;;;4.10;84.50;;;;;;5105715;28;20558;-74
2021/04/08 03:50:07;;;;;;;10.05;4.35;;;4.10;84.20;;;;;;5109180;28;20028;-74
2021/04/08 03:52:34;;;;;;;12.88;4.68;;;4.10;84.10;;;;;;5101523;28;20027;-74
2021/04/08 03:55:00;;;;;;;12.82;4.50;;;4.10;84.10;;;;;;5090851;28;20032;-75
2021/04/08 03:57:26;;;;;;;7.57;3.80;;;4.10;84.10;;;;;;5092200;28;20070;-75
2021/04/08 03:59:52;;;;;;;15.45;4.68;;;4.10;84.20;;;;;;5076941;28;20024;-75
2021/04/08 04:02:20;;;;;;;13.40;4.88;;;4.10;84.10;;;;;;5077460;28;20021;-74
2021/04/08 04:04:47;;;;;;;15.15;4.63;;;4.10;84.00;;;;;;5076897;28;20024;-75
2021/04/08 04:07:13;;;;;;;9.93;4.80;;;4.10;83.90;;;;;;5078725;28;20055;-75
2021/04/08 04:09:40;;;;;;;14.30;4.70;;;4.10;83.90;;;;;;5077025;28;20039;-75
2021/04/08 04:12:07;;;;;;;10.70;3.90;;;4.10;83.80;;;;;;5078032;28;20033;-75
2021/04/08 04:14:37;;;;;;;17.45;5.03;;;4.10;83.80;;;;;;5078568;28;20033;-75
2021/04/08 04:17:24;;;;;;;13.95;4.35;;;4.00;83.70;;;;;;5078833;28;20032;-75
2021/04/08 04:19:49;;;;;;;8.93;4.25;;;4.10;83.80;;;;;;5077396;28;20400;-75
2021/04/08 04:22:15;;;;;;;11.45;4.55;;;4.00;83.60;;;;;;5079019;28;20047;-75
2021/04/08 04:24:40;;;;;;;12.75;4.72;;;4.10;83.70;;;;;;5060814;28;20457;-75
2021/04/08 04:27:06;;;;;;;13.73;5.03;;;4.00;83.50;;;;;;5076160;28;20024;-74
2021/04/08 04:29:32;;;;;;;15.63;4.75;;;4.00;83.50;;;;;;5077165;28;20032;-74
2021/04/08 04:31:58;;;;;;;11.10;5.00;;;4.00;83.50;;;;;;5077416;28;20027;-74
2021/04/08 04:34:23;;;;;;;11.85;4.38;;;4.00;83.50;;;;;;5077979;28;20032;-75
2021/04/08 04:36:49;;;;;;;14.50;5.60;;;3.90;83.50;;;;;;5077114;28;20025;-75
2021/04/08 04:39:14;;;;;;;14.00;5.30;;;3.90;83.40;;;;;;5078652;28;20046;-74
2021/04/08 04:41:40;;;;;;;10.10;5.32;;;3.90;83.30;;;;;;5077487;28;20483;-74
2021/04/08 04:44:06;;;;;;;13.80;5.20;;;3.90;83.30;;;;;;5078419;28;20028;-74
2021/04/08 04:46:31;;;;;;;13.10;4.72;;;3.90;83.30;;;;;;5078434;28;20473;-74
2021/04/08 04:48:57;;;;;;;14.10;4.80;;;3.90;83.20;;;;;;5060404;28;20071;-74
2021/04/08 04:51:23;;;;;;;8.50;5.38;;;3.80;83.10;;;;;;5078580;28;20033;-75
2021/04/08 04:53:48;;;;;;;20.58;6.13;;;3.90;83.10;;;;;;5075786;28;20503;-74
2021/04/08 04:56:14;;;;;;;12.60;5.82;;;3.90;83.00;;;;;;5059626;28;20063;-74
2021/04/08 04:58:40;;;;;;;13.55;6.13;;;3.90;83.00;;;;;;5076975;28;20046;-75
2021/04/08 05:01:06;;;;;;;11.40;5.43;;;3.90;82.90;;;;;;5076255;28;20106;-74
2021/04/08 05:03:31;;;;;;;13.05;5.07;;;3.90;82.80;;;;;;5095199;28;20051;-74
2021/04/08 05:05:57;;;;;;;13.30;5.70;;;3.90;82.80;;;;;;5094484;28;20467;-74
2021/04/08 05:08:22;;;;;;;15.63;5.65;;;3.90;82.80;;;;;;5095218;28;20024;-74
2021/04/08 05:10:48;;;;;;;12.65;5.72;;;3.80;82.80;;;;;;5095075;28;20036;-74
2021/04/08 05:13:13;;;;;;;16.95;6.22;;;3.80;82.90;;;;;;5095535;28;20024;-74
2021/04/08 05:15:39;;;;;;;10.90;4.90;;;3.80;82.80;;;;;;5059821;28;20620;-74
2021/04/08 05:18:05;;;;;;;12.00;5.57;;;3.80;82.80;;;;;;5076633;28;20036;-74
2021/04/08 05:20:30;;;;;;;14.43;5.80;;;3.80;82.70;;;;;;5080056;28;20426;-74
2021/04/08 05:22:56;;;;;;;12.93;5.22;;;3.80;82.70;;;;;;5094076;28;20028;-74
2021/04/08 05:25:22;;;;;;;9.95;5.15;;;3.80;82.70;;;;;;5060353;28;20024;-74
2021/04/08 05:27:47;;;;;;;14.48;5.45;;;3.90;82.70;;;;;;5095427;28;20035;-74
2021/04/08 05:30:13;;;;;;;10.52;5.68;;;3.90;82.50;;;;;;5060036;28;20032;-74
2021/04/08 05:32:39;;;;;;;16.60;5.50;;;3.80;82.40;;;;;;5095309;28;20481;-75
2021/04/08 05:35:05;;;;;;;14.07;5.32;;;3.80;82.40;;;;;;5095085;28;20093;-75
2021/04/08 05:37:31;;;;;;;11.93;4.57;;;3.80;82.40;;;;;;5095338;28;20036;-74
2021/04/08 05:39:58;;;;;;;11.13;5.25;;;3.80;82.20;;;;;;5076655;28;20040;-75
2021/04/08 05:42:23;;;;;;;9.90;4.93;;;3.80;82.10;;;;;;5060547;28;20028;-75
2021/04/08 05:44:49;;;;;;;12.45;5.35;;;3.90;82.10;;;;;;5094970;28;20035;-74
2021/04/08 05:47:15;;;;;;;11.23;5.32;;;3.90;82.10;;;;;;5077244;28;20384;-75
2021/04/08 05:49:41;;;;;;;15.23;4.97;;;3.90;82.10;;;;;;5094732;28;20032;-75
2021/04/08 05:52:07;;;;;;;13.30;5.07;;;4.00;82.00;;;;;;5076532;28;20043;-75
2021/04/08 05:54:33;;;;;;;10.63;4.88;;;4.00;81.90;;;;;;5094046;28;20038;-74
2021/04/08 05:56:58;;;;;;;11.75;5.30;;;4.10;81.90;;;;;;5076904;28;20475;-75
2021/04/08 05:59:24;;;;;;;12.25;4.70;;;4.00;81.50;;;;;;5094686;28;20050;-74
2021/04/08 06:01:50;;;;;;;13.40;5.05;;;4.10;81.40;;;;;;5094858;28;20076;-75
2021/04/08 06:04:16;;;;;;;11.55;4.75;;;4.10;81.10;;;;;;5093829;28;20476;-75
2021/04/08 06:06:41;;;;;;;12.35;4.80;;;4.10;81.00;;;;;;5076389;28;20036;-75
2021/04/08 06:09:07;;;;;;;12.95;5.18;;;4.20;80.90;;;;;;5094460;28;20539;-75
2021/04/08 06:11:32;;;;;;;11.95;4.53;;;4.20;80.60;;;;;;5094427;28;20032;-75
2021/04/08 06:13:58;;;;;;;9.15;4.57;;;4.30;81.10;;;;;;5043362;28;20027;-75
2021/04/08 06:16:24;;;;;;;17.20;5.35;;;4.30;80.30;;;;;;5076336;28;20134;-75
2021/04/08 06:18:49;;;;;;;10.52;4.45;;;4.30;80.10;;;;;;5075866;28;20493;-75
2021/04/08 06:21:15;;;;;;;13.68;5.00;;;4.30;80.60;;;;;;5059691;28;20028;-75
2021/04/08 06:23:40;;;;;;;14.85;5.13;;;4.40;80.00;;;;;;5076172;28;20024;-74
2021/04/08 06:26:06;;;;;;;9.90;4.43;;;4.40;79.60;;;;;;5076064;28;20070;-75
2021/04/08 06:28:32;;;;;;;7.00;3.80;;;4.40;79.40;;;;;;5094092;28;20030;-75
2021/04/08 06:30:57;;;;;;;9.98;4.25;;;4.50;79.20;;;;;;5075659;28;20035;-75
2021/04/08 06:33:23;;;;;;;8.75;4.75;;;4.50;78.90;;;;;;5038793;28;20052;-75
2021/04/08 06:35:48;;;;;;;6.78;3.88;;;4.60;78.60;;;;;;5097892;28;20036;-75
2021/04/08 06:38:14;;;;;;;14.25;4.38;;;4.60;78.60;;;;;;5093872;28;20028;-75
2021/04/08 06:40:40;;;;;;;7.63;3.88;;;4.60;78.50;;;;;;5059057;28;20111;-76
2021/04/08 06:43:10;;;;;;;10.23;4.32;;;4.70;78.20;;;;;;5093927;28;20473;-75
2021/04/08 06:45:38;;;;;;;11.27;4.05;;;4.70;77.80;;;;;;5076028;28;20031;-75
2021/04/08 06:48:07;;;;;;;12.00;4.43;;;4.90;77.80;;;;;;5075848;28;20048;-75
2021/04/08 06:50:36;;;;;;;7.57;3.90;;;4.90;77.40;;;;;;5075785;28;20020;-75
2021/04/08 06:53:03;;;;;;;9.05;3.95;;;4.90;77.10;;;;;;5093979;28;20066;-75
2021/04/08 06:55:29;;;;;;;9.25;3.38;;;5.00;76.90;;;;;;5074383;28;20032;-75
2021/04/08 06:57:55;;;;;;;7.88;3.80;;;5.00;76.80;;;;;;5093081;28;20037;-75
2021/04/08 07:00:22;;;;;;;8.43;3.72;;;5.10;76.80;;;;;;5093501;28;20032;-75
2021/04/08 07:02:48;;;;;;;5.65;3.38;;;5.10;76.60;;;;;;5075576;28;20039;-75
2021/04/08 07:05:14;;;;;;;7.32;3.75;;;5.10;76.50;;;;;;5093675;28;20032;-75
2021/04/08 07:07:40;;;;;;;7.95;3.70;;;5.10;76.30;;;;;;5055503;28;20025;-75
2021/04/08 07:10:06;;;;;;;12.32;4.00;;;5.20;76.20;;;;;;5085444;28;20080;-75
2021/04/08 07:12:32;;;;;;;9.48;3.55;;;5.30;76.00;;;;;;5058408;28;20043;-75
2021/04/08 07:14:58;;;;;;;10.40;3.45;;;5.30;75.10;;;;;;5073341;28;20031;-75
2021/04/08 07:17:24;;;;;;;7.38;3.20;;;5.40;75.30;;;;;;5090034;28;20103;-75
2021/04/08 07:19:49;;;;;;;10.65;3.63;;;5.50;75.20;;;;;;5092813;28;20269;-74
2021/04/08 07:22:17;;;;;;;10.23;3.55;;;5.60;75.10;;;;;;5057969;28;20020;-74
2021/04/08 07:24:47;;;;;;;6.80;3.28;;;5.80;74.40;;;;;;5074455;28;20077;-75
2021/04/08 07:27:19;;;;;;;7.95;3.72;;;5.90;74.00;;;;;;5074385;28;20449;-76
2021/04/08 07:29:58;;;;;;;11.10;3.47;;;6.10;73.50;;;;;;5093432;28;20108;-76
2021/04/08 07:32:28;;;;;;;6.38;3.40;;;6.20;72.90;;;;;;5092925;28;20047;-76
2021/04/08 07:34:57;;;;;;;6.43;3.13;;;6.30;72.10;;;;;;5072119;28;20032;-75
2021/04/08 07:37:26;;;;;;;8.02;3.08;;;6.40;72.00;;;;;;5092660;28;20046;-76
2021/04/08 07:39:51;;;;;;;9.30;3.10;;;6.60;71.60;;;;;;5092738;28;20028;-75
2021/04/08 07:42:25;;;;;;;5.00;2.95;;;6.60;70.90;;;;;;5093018;28;20085;-76
2021/04/08 07:44:56;;;;;;;8.15;3.28;;;6.70;70.80;;;;;;5075092;28;20031;-75
2021/04/08 07:47:30;;;;;;;7.90;3.38;;;6.80;69.90;;;;;;5089317;28;20038;-76
2021/04/08 07:50:11;;;;;;;5.50;2.78;;;6.90;69.90;;;;;;5092072;28;20099;-76
2021/04/08 07:52:38;;;;;;;8.88;3.28;;;7.00;69.70;;;;;;5069162;28;20021;-75
2021/04/08 07:55:04;;;;;;;9.88;3.30;;;7.10;69.60;;;;;;5092342;28;20054;-75
2021/04/08 07:57:31;;;;;;;7.68;3.22;;;7.20;69.20;;;;;;5070414;28;20052;-75
2021/04/08 07:59:57;;;;;;;11.30;3.15;;;7.20;68.70;;;;;;5070893;28;20554;-76
2021/04/08 08:02:25;;;;;;;9.10;3.03;;;7.30;68.30;;;;;;5070975;28;20020;-75
2021/04/08 08:05:22;;;;;;;9.68;2.90;;;7.30;67.80;;;;;;5071050;28;20035;-75
2021/04/08 08:07:47;;;;;;;7.10;2.65;;;7.30;67.90;;;;;;5070561;28;20384;-75
2021/04/08 08:10:15;;;;;;;6.20;3.15;;;7.40;68.00;;;;;;5072133;28;20124;-75
2021/04/08 08:12:41;;;;;;;7.25;2.97;;;7.40;67.80;;;;;;5072281;28;20381;-75
2021/04/08 08:15:33;;;;;;;4.25;2.75;;;7.50;67.70;;;;;;5071230;28;20033;-74
2021/04/08 08:17:59;;;;;;;4.05;2.70;;;7.50;67.50;;;;;;5071300;28;20494;-75
2021/04/08 08:20:27;;;;;;;6.72;2.75;;;7.50;67.40;;;;;;5072223;28;20029;-75
2021/04/08 08:22:53;;;;;;;4.97;2.65;;;7.50;67.00;;;;;;5091025;28;20034;-74
2021/04/08 08:25:26;;;;;;;7.45;2.80;;;7.50;67.00;;;;;;5072679;28;20107;-74
2021/04/08 08:27:53;;;;;;;7.15;2.80;;;7.50;67.00;;;;;;5071108;28;20052;-74
2021/04/08 08:30:52;;;;;;;12.30;3.00;;;7.30;63.50;;;;;;5073349;28;20036;-74
2021/04/08 08:33:19;;;;;;;6.00;3.08;;;7.30;64.30;;;;;;5074758;28;20083;-74
2021/04/08 08:35:46;;;;;;;12.98;3.17;;;7.30;64.80;;;;;;5058391;28;20032;-74
2021/04/08 08:38:18;;;;;;;6.30;2.90;;;7.20;65.00;;;;;;5075701;28;20028;-74
2021/04/08 08:40:46;;;;;;;8.75;2.58;;;7.30;65.40;;;;;;5076195;28;20473;-74
2021/04/08 08:43:13;;;;;;;9.73;2.70;;;7.40;65.30;;;;;;5074324;28;20500;-74
2021/04/08 08:45:40;;;;;;;5.50;2.78;;;7.50;64.70;;;;;;5060131;28;20043;-74
2021/04/08 08:48:18;;;;;;;5.22;2.90;;;7.60;64.70;;;;;;5074377;28;20448;-74
2021/04/08 08:50:44;;;;;;;5.25;2.72;;;7.70;64.50;;;;;;5075517;28;20069;-74
2021/04/08 08:53:13;;;;;;;7.57;2.97;;;7.80;64.50;;;;;;5075937;28;20021;-74
2021/04/08 08:55:41;;;;;;;7.00;2.85;;;7.90;64.30;;;;;;5058438;28;20142;-74
2021/04/08 08:58:10;;;;;;;7.45;2.70;;;8.00;63.60;;;;;;5074460;28;20405;-74
2021/04/08 09:00:35;;;;;;;8.20;2.97;;;8.10;64.00;;;;;;5075874;28;20493;-74
2021/04/08 09:03:03;;;;;;;9.57;2.70;;;8.10;62.70;;;;;;5054400;28;20037;-74
2021/04/08 09:05:31;;;;;;;7.95;2.90;;;8.20;62.60;;;;;;5065531;28;20047;-74
2021/04/08 09:08:11;;;;;;;8.55;3.10;;;8.20;62.40;;;;;;5075393;28;20024;-74
2021/04/08 09:10:41;;;;;;;5.15;2.45;;;8.30;61.80;;;;;;5074202;28;20036;-74
2021/04/08 09:13:07;;;;;;;6.38;2.92;;;8.40;61.50;;;;;;5073617;28;20428;-75
2021/04/08 09:15:35;;;;;;;7.45;2.90;;;8.50;61.60;;;;;;5074224;28;20041;-74
2021/04/08 09:18:04;;;;;;;6.85;2.78;;;8.50;60.60;;;;;;5075551;28;20036;-74
2021/04/08 09:20:32;;;;;;;7.38;2.90;;;8.50;60.10;;;;;;5075698;28;20211;-74
2021/04/08 09:23:07;;;;;;;4.85;2.50;;;8.60;60.00;;;;;;5075315;28;20174;-74
2021/04/08 09:25:38;;;;;;;6.28;2.63;;;8.70;59.90;;;;;;5074513;28;20547;-74
2021/04/08 09:28:05;;;;;;;4.20;2.72;;;8.80;59.50;;;;;;5074339;28;20046;-74
2021/04/08 09:30:41;;;;;;;5.18;2.45;;;8.90;59.30;;;;;;5075084;28;20412;-74
2021/04/08 09:33:08;;;;;;;6.13;2.33;;;9.00;59.00;;;;;;5074892;28;20028;-74
2021/04/08 09:35:34;;;;;;;3.03;1.98;;;9.20;56.70;;;;;;5074939;28;20032;-74
2021/04/08 09:37:59;;;;;;;3.45;1.70;;;9.30;57.10;;;;;;5074494;28;20034;-74
2021/04/08 09:40:36;;;;;;;5.05;2.30;;;9.40;57.10;;;;;;5074296;28;20031;-74
2021/04/08 09:43:10;;;;;;;3.22;1.90;;;9.60;55.80;;;;;;5073761;28;20027;-74
2021/04/08 09:45:49;;;;;;;9.30;3.03;;;9.80;53.60;;;;;;5073764;28;20503;-74
2021/04/08 09:48:21;;;;;;;4.28;2.50;;;9.90;51.30;;;;;;5075025;28;20016;-74
2021/04/08 09:50:57;;;;;;;4.78;2.42;;;9.70;47.30;;;;;;5054870;28;20025;-74
2021/04/08 09:53:42;;;;;;;8.50;2.25;;;9.70;49.90;;;;;;5069122;28;20016;-74
2021/04/08 09:56:08;;;;;;;2.75;1.90;;;9.70;50.10;;;;;;5072440;28;20021;-75
2021/04/08 09:58:37;;;;;;;8.00;2.72;;;9.80;51.40;;;;;;5077176;28;20048;-74
2021/04/08 10:01:10;;;;;;;5.10;2.50;;;9.90;50.30;;;;;;5077063;28;20032;-74
2021/04/08 10:03:41;;;;;;;10.63;2.78;;;10.00;50.40;;;;;;5094481;28;20381;-74
2021/04/08 10:06:23;;;;;;;4.35;2.20;;;9.90;50.60;;;;;;5076842;28;20039;-74
2021/04/08 10:08:49;;;;;;;4.10;2.10;;;9.70;46.80;;;;;;5076573;28;20120;-74
2021/04/08 10:11:26;;;;;;;5.85;1.92;;;9.50;49.70;;;;;;5094505;28;20441;-74
2021/04/08 10:13:52;;;;;;;5.15;2.33;;;9.70;49.90;;;;;;5095641;28;20020;-74
2021/04/08 10:16:17;;;;;;;4.93;2.65;;;9.80;48.70;;;;;;5098833;28;20031;-75
2021/04/08 10:18:44;;;;;;;7.28;2.45;;;9.70;47.20;;;;;;5095664;28;20077;-75
2021/04/08 10:21:14;;;;;;;7.47;2.30;;;9.70;48.30;;;;;;5075948;28;20028;-75
2021/04/08 10:23:51;;;;;;;3.55;1.90;;;9.70;48.70;;;;;;5076253;28;20024;-74
2021/04/08 10:26:18;;;;;;;4.18;2.38;;;9.70;47.60;;;;;;5094556;28;20024;-75
2021/04/08 10:28:46;;;;;;;5.55;2.95;;;9.60;46.00;;;;;;5094854;28;20058;-74
2021/04/08 10:31:20;;;;;;;7.43;2.70;;;9.70;46.30;;;;;;5094425;28;20016;-74
2021/04/08 10:33:47;;;;;;;5.78;2.28;;;9.70;46.50;;;;;;5076374;28;20406;-75
2021/04/08 10:36:43;;;;;;;5.65;2.60;;;9.80;48.10;;;;;;5092732;28;20032;-75
2021/04/08 10:39:15;;;;;;;6.35;2.60;;;9.90;47.00;;;;;;5094009;28;20427;-74
2021/04/08 10:42:05;;;;;;;6.28;2.42;;;9.80;45.40;;;;;;5073859;28;20377;-74
2021/04/08 10:44:35;;;;;;;4.88;2.65;;;9.80;47.40;;;;;;5091591;28;20025;-74
2021/04/08 10:47:06;;;;;;;8.07;2.53;;;9.80;47.90;;;;;;5075720;28;20024;-75
2021/04/08 10:49:36;;;;;;;7.35;3.20;;;9.90;47.00;;;;;;5103490;28;20560;-75
2021/04/08 10:52:07;;;;;;;6.13;3.08;;;9.90;45.50;;;;;;5093048;28;20024;-74
2021/04/08 10:54:35;;;;;;;6.53;3.25;;;9.90;46.90;;;;;;5075795;28;20059;-74
2021/04/08 10:57:01;;;;;;;7.05;3.05;;;10.00;46.70;;;;;;5093604;28;20044;-74
2021/04/08 10:59:29;;;;;;;6.18;2.95;;;10.10;45.50;;;;;;5093754;28;20123;-75
2021/04/08 11:01:55;;;;;;;6.43;2.88;;;10.10;45.00;;;;;;5074958;28;20582;-74
2021/04/08 11:04:22;;;;;;;5.47;2.80;;;10.10;45.80;;;;;;5075134;28;20420;-74
2021/04/08 11:06:49;;;;;;;4.00;3.00;;;10.10;46.20;;;;;;5093142;28;20545;-75
2021/04/08 11:09:28;;;;;;;7.13;2.75;;;10.10;47.20;;;;;;5075117;28;20036;-74
2021/04/08 11:11:55;;;;;;;6.43;3.15;;;10.10;47.00;;;;;;5075173;28;20501;-74
2021/04/08 11:14:23;;;;;;;6.28;3.10;;;10.10;47.50;;;;;;5075069;28;20043;-74
2021/04/08 11:16:50;;;;;;;7.03;2.83;;;10.30;48.00;;;;;;5058386;28;20039;-74
2021/04/08 11:19:16;;;;;;;6.80;3.20;;;10.40;47.80;;;;;;5075631;28;20395;-74
2021/04/08 11:21:42;;;;;;;7.80;3.90;;;10.50;47.20;;;;;;5058854;28;20029;-74
2021/04/08 11:24:09;;;;;;;5.82;3.47;;;10.50;47.50;;;;;;5093368;28;20024;-74
2021/04/08 11:26:49;;;;;;;7.60;3.70;;;10.50;46.10;;;;;;5075775;28;20103;-74
2021/04/08 11:29:26;;;;;;;3.88;2.92;;;10.40;46.60;;;;;;5093523;28;20085;-74
2021/04/08 11:32:03;;;;;;;4.63;3.05;;;10.40;47.50;;;;;;5075031;28;20051;-74
2021/04/08 11:34:40;;;;;;;5.57;3.20;;;10.50;47.70;;;;;;5093260;28;20020;-74
2021/04/08 11:37:05;;;;;;;5.97;3.65;;;10.50;47.30;;;;;;5092917;28;20052;-74
2021/04/08 11:39:35;;;;;;;7.00;3.67;;;10.70;47.20;;;;;;5092747;28;20125;-74
2021/04/08 11:42:23;;;;;;;8.07;3.70;;;10.90;47.70;;;;;;5074775;28;20085;-74
2021/04/08 11:44:51;;;;;;;10.50;4.20;;;11.20;47.50;;;;;;5074455;28;20028;-74
2021/04/08 11:47:23;;;;;;;8.43;4.30;;;11.40;47.00;;;;;;5075083;28;20020;-74
2021/04/08 11:49:51;;;;;;;6.15;3.90;;;11.40;45.90;;;;;;5088566;28;20515;-74
2021/04/08 11:52:22;;;;;;;7.80;4.05;;;11.30;46.60;;;;;;5073271;28;20051;-74
2021/04/08 11:54:59;;;;;;;6.18;4.43;;;11.20;46.70;;;;;;5055512;28;20078;-74
2021/04/08 11:57:25;;;;;;;13.30;4.93;;;11.00;45.40;;;;;;5083267;28;20048;-74
2021/04/08 11:59:58;;;;;;;8.43;5.28;;;10.90;45.20;;;;;;5074663;28;20040;-73
2021/04/08 12:02:33;;;;;;;8.82;4.90;;;10.90;46.40;;;;;;5074835;28;20528;-75
2021/04/08 12:05:00;;;;;;;11.20;5.22;;;10.90;46.70;;;;;;5096007;28;20099;-75
2021/04/08 12:07:26;;;;;;;7.03;5.00;;;10.90;46.80;;;;;;5097208;28;20017;-75
2021/04/08 12:09:53;;;;;;;10.13;5.25;;;11.10;46.60;;;;;;5062622;28;20508;-75
2021/04/08 12:12:28;;;;;;;11.45;5.95;;;11.10;46.00;;;;;;5078313;28;20036;-75
2021/04/08 12:15:03;;;;;;;12.15;6.07;;;11.10;46.60;;;;;;5080508;28;20028;-75
2021/04/08 12:17:30;;;;;;;10.63;5.43;;;11.10;46.50;;;;;;5097125;28;20451;-75
2021/04/08 12:20:18;;;;;;;9.38;5.95;;;11.10;46.00;;;;;;5062077;28;20081;-75
2021/04/08 12:22:44;;;;;;;6.30;4.68;;;10.90;44.70;;;;;;5078676;28;20028;-75
2021/04/08 12:25:12;;;;;;;9.13;5.88;;;10.80;46.00;;;;;;5061777;28;20412;-74
2021/04/08 12:27:38;;;;;;;9.70;5.32;;;10.70;46.60;;;;;;5096881;28;20085;-74
2021/04/08 12:30:09;;;;;;;9.70;5.53;;;10.70;46.90;;;;;;5078108;28;20036;-75
2021/04/08 12:32:35;;;;;;;8.90;5.60;;;10.90;46.70;;;;;;5078794;28;20035;-75
2021/04/08 12:35:02;;;;;;;18.77;6.60;;;10.90;44.80;;;;;;5078122;28;20032;-75
2021/04/08 12:37:27;;;;;;;8.35;5.18;;;10.90;44.60;;;;;;5095806;28;20039;-75
2021/04/08 12:39:53;;;;;;;8.57;4.80;;;10.80;44.20;;;;;;5078149;28;20020;-74
2021/04/08 12:42:20;;;;;;;9.35;5.13;;;10.70;44.90;;;;;;5078098;28;20049;-74
2021/04/08 12:44:46;;;;;;;7.85;4.20;;;10.80;44.60;;;;;;5096352;28;20173;-74
2021/04/08 12:47:12;;;;;;;6.13;4.30;;;10.90;45.50;;;;;;5061481;28;20114;-74
2021/04/08 12:49:38;;;;;;;7.35;4.20;;;11.20;46.00;;;;;;5061781;28;20477;-74
2021/04/08 12:52:04;;;;;;;9.70;4.60;;;11.40;45.70;;;;;;5077928;28;20032;-74
2021/04/08 12:54:34;;;;;;;9.77;5.20;;;11.60;46.30;;;;;;5078009;28;20024;-74
2021/04/08 12:57:00;;;;;;;5.40;4.05;;;11.90;43.70;;;;;;5089430;28;20043;-74
2021/04/08 12:59:29;;;;;;;7.00;4.50;;;12.20;44.30;;;;;;5075756;28;20081;-74
2021/04/08 13:01:54;;;;;;;7.25;5.00;;;12.30;44.50;;;;;;5075874;28;20036;-74